sensor_id;sensor_type;location;lat;lon;timestamp;pressure;altitude;pressure_sealevel;temperature;humidity
13478;BME280;12598;62.382;17.344;2023-04-10T00:00:36;102831.56;;;18.88;22.92
13478;BME280;12598;62.382;17.344;2023-04-10T00:01:39;102826.19;;;18.88;22.93
13478;BME280;12598;62.382;17.344;2023-04-10T00:02:41;102839.31;;;18.93;22.69
13478;BME280;12598;62.382;17.344;2023-04-10T00:03:43;102844.69;;;18.93;23.22
13478;BME280;12598;62.382;17.344;2023-04-10T00:04:45;102840.28;;;18.92;22.84
13478;BME280;12598;62.382;17.344;2023-04-10T00:05:47;102838.56;;;18.91;23.12
13478;BME280;12598;62.382;17.344;2023-04-10T00:06:49;102844.88;;;18.90;23.08
13478;BME280;12598;62.382;17.344;2023-04-10T00:07:51;102832.44;;;18.89;22.78
13478;BME280;12598;62.382;17.344;2023-04-10T00:08:54;102830.94;;;18.85;22.70
13478;BME280;12598;62.382;17.344;2023-04-10T00:09:55;102811.38;;;18.70;23.00
13478;BME280;12598;62.382;17.344;2023-04-10T00:10:57;102843.16;;;18.89;23.03
13478;BME280;12598;62.382;17.344;2023-04-10T00:11:59;102828.47;;;18.82;22.72
13478;BME280;12598;62.382;17.344;2023-04-10T00:13:01;102846.06;;;18.86;23.13
13478;BME280;12598;62.382;17.344;2023-04-10T00:14:04;102834.44;;;18.85;22.57
13478;BME280;12598;62.382;17.344;2023-04-10T00:15:06;102841.66;;;18.85;22.75
13478;BME280;12598;62.382;17.344;2023-04-10T00:16:09;102838.09;;;18.84;22.98
13478;BME280;12598;62.382;17.344;2023-04-10T00:17:11;102834.56;;;18.84;23.04
13478;BME280;12598;62.382;17.344;2023-04-10T00:18:13;102829.63;;;18.78;22.88
13478;BME280;12598;62.382;17.344;2023-04-10T00:19:15;102838.44;;;18.80;22.72
13478;BME280;12598;62.382;17.344;2023-04-10T00:20:17;102837.34;;;18.82;22.83
13478;BME280;12598;62.382;17.344;2023-04-10T00:21:19;102840.03;;;18.82;22.87
13478;BME280;12598;62.382;17.344;2023-04-10T00:22:21;102843.66;;;18.81;22.87
13478;BME280;12598;62.382;17.344;2023-04-10T00:23:23;102845.50;;;18.81;22.99
13478;BME280;12598;62.382;17.344;2023-04-10T00:24:26;102841.09;;;18.80;22.89
13478;BME280;12598;62.382;17.344;2023-04-10T00:25:28;102836.72;;;18.79;23.02
13478;BME280;12598;62.382;17.344;2023-04-10T00:26:30;102840.34;;;18.78;22.65
13478;BME280;12598;62.382;17.344;2023-04-10T00:27:32;102841.19;;;18.78;22.85
13478;BME280;12598;62.382;17.344;2023-04-10T00:28:34;102832.31;;;18.78;22.57
13478;BME280;12598;62.382;17.344;2023-04-10T00:29:38;102840.34;;;18.78;23.04
13478;BME280;12598;62.382;17.344;2023-04-10T00:30:40;102850.19;;;18.77;22.81
13478;BME280;12598;62.382;17.344;2023-04-10T00:31:42;102840.56;;;18.75;22.90
13478;BME280;12598;62.382;17.344;2023-04-10T00:32:44;102845.91;;;18.75;23.10
13478;BME280;12598;62.382;17.344;2023-04-10T00:33:46;102841.53;;;18.74;22.66
13478;BME280;12598;62.382;17.344;2023-04-10T00:34:48;102844.19;;;18.74;23.02
13478;BME280;12598;62.382;17.344;2023-04-10T00:35:50;102840.66;;;18.73;23.00
13478;BME280;12598;62.382;17.344;2023-04-10T00:36:53;102843.31;;;18.73;22.46
13478;BME280;12598;62.382;17.344;2023-04-10T00:37:55;102843.31;;;18.73;22.65
13478;BME280;12598;62.382;17.344;2023-04-10T00:38:58;102839.81;;;18.73;22.99
13478;BME280;12598;62.382;17.344;2023-04-10T00:40:00;102846.13;;;18.72;22.93
13478;BME280;12598;62.382;17.344;2023-04-10T00:41:02;102839.88;;;18.71;23.21
13478;BME280;12598;62.382;17.344;2023-04-10T00:42:04;102840.75;;;18.72;22.95
13478;BME280;12598;62.382;17.344;2023-04-10T00:43:10;102839.88;;;18.71;22.61
13478;BME280;12598;62.382;17.344;2023-04-10T00:44:11;102844.38;;;18.71;22.71
13478;BME280;12598;62.382;17.344;2023-04-10T00:45:13;102839.97;;;18.70;22.65
13478;BME280;12598;62.382;17.344;2023-04-10T00:46:15;102831.50;;;18.63;23.02
13478;BME280;12598;62.382;17.344;2023-04-10T00:47:18;102838.38;;;18.67;22.57
13478;BME280;12598;62.382;17.344;2023-04-10T00:48:20;102837.50;;;18.67;22.93
13478;BME280;12598;62.382;17.344;2023-04-10T00:49:22;102840.19;;;18.67;22.62
13478;BME280;12598;62.382;17.344;2023-04-10T00:50:24;102840.19;;;18.67;22.55
13478;BME280;12598;62.382;17.344;2023-04-10T00:51:26;102835.78;;;18.66;22.46
13478;BME280;12598;62.382;17.344;2023-04-10T00:52:27;102825.47;;;18.60;22.76
13478;BME280;12598;62.382;17.344;2023-04-10T00:53:30;102830.53;;;18.64;23.02
13478;BME280;12598;62.382;17.344;2023-04-10T00:54:32;102827.38;;;18.58;22.71
13478;BME280;12598;62.382;17.344;2023-04-10T00:55:37;102832.34;;;18.64;23.15
13478;BME280;12598;62.382;17.344;2023-04-10T00:56:38;102832.34;;;18.64;22.66
13478;BME280;12598;62.382;17.344;2023-04-10T00:57:45;102835.13;;;18.62;22.70
13478;BME280;12598;62.382;17.344;2023-04-10T00:58:47;102804.84;;;18.48;22.62
13478;BME280;12598;62.382;17.344;2023-04-10T00:59:49;102835.13;;;18.62;22.78
13478;BME280;12598;62.382;17.344;2023-04-10T01:00:54;102826.22;;;18.62;22.56
13478;BME280;12598;62.382;17.344;2023-04-10T01:01:57;102834.25;;;18.62;22.49
13478;BME280;12598;62.382;17.344;2023-04-10T01:02:59;102816.78;;;18.56;22.68
13478;BME280;12598;62.382;17.344;2023-04-10T01:04:02;102823.75;;;18.59;22.94
13478;BME280;12598;62.382;17.344;2023-04-10T01:05:05;102829.09;;;18.59;22.65
13478;BME280;12598;62.382;17.344;2023-04-10T01:06:33;102820.22;;;18.58;22.83
13478;BME280;12598;62.382;17.344;2023-04-10T01:08:11;102820.38;;;18.69;22.83
13478;BME280;12598;62.382;17.344;2023-04-10T01:11:09;102818.34;;;18.73;22.77
13478;BME280;12598;62.382;17.344;2023-04-10T01:15:06;102817.97;;;18.65;22.61
13478;BME280;12598;62.382;17.344;2023-04-10T01:18:05;102812.53;;;18.66;22.44
13478;BME280;12598;62.382;17.344;2023-04-10T01:20:24;102826.22;;;18.62;22.92
13478;BME280;12598;62.382;17.344;2023-04-10T01:21:28;102820.31;;;18.57;22.70
13478;BME280;12598;62.382;17.344;2023-04-10T01:22:58;102823.97;;;18.56;22.58
13478;BME280;12598;62.382;17.344;2023-04-10T01:25:28;102785.44;;;18.44;22.88
13478;BME280;12598;62.382;17.344;2023-04-10T01:25:59;102814.53;;;18.63;22.25
13478;BME280;12598;62.382;17.344;2023-04-10T01:27:11;102818.41;;;18.59;22.34
13478;BME280;12598;62.382;17.344;2023-04-10T01:28:37;102814.97;;;18.57;22.67
13478;BME280;12598;62.382;17.344;2023-04-10T01:29:45;102814.19;;;18.55;22.70
13478;BME280;12598;62.382;17.344;2023-04-10T01:30:54;102820.53;;;18.54;22.51
13478;BME280;12598;62.382;17.344;2023-04-10T01:32:02;102819.00;;;18.50;22.42
13478;BME280;12598;62.382;17.344;2023-04-10T01:33:08;102817.38;;;18.47;23.04
13478;BME280;12598;62.382;17.344;2023-04-10T01:34:15;102811.47;;;18.42;22.48
13478;BME280;12598;62.382;17.344;2023-04-10T01:35:18;102814.81;;;18.46;22.82
13478;BME280;12598;62.382;17.344;2023-04-10T01:36:24;102806.97;;;18.43;22.48
13478;BME280;12598;62.382;17.344;2023-04-10T01:37:30;102815.97;;;18.42;22.80
13478;BME280;12598;62.382;17.344;2023-04-10T01:38:32;102807.94;;;18.42;22.91
13478;BME280;12598;62.382;17.344;2023-04-10T01:39:38;102811.59;;;18.41;22.86
13478;BME280;12598;62.382;17.344;2023-04-10T01:40:43;102812.53;;;18.40;22.55
13478;BME280;12598;62.382;17.344;2023-04-10T01:41:59;102808.69;;;18.44;22.74
13478;BME280;12598;62.382;17.344;2023-04-10T01:43:10;102806.97;;;18.43;22.54
13478;BME280;12598;62.382;17.344;2023-04-10T01:44:23;102814.13;;;18.42;22.66
13478;BME280;12598;62.382;17.344;2023-04-10T01:45:28;102810.63;;;18.42;22.60
13478;BME280;12598;62.382;17.344;2023-04-10T01:46:30;102809.94;;;18.38;23.08
13478;BME280;12598;62.382;17.344;2023-04-10T01:47:33;102815.31;;;18.38;22.77
13478;BME280;12598;62.382;17.344;2023-04-10T01:48:36;102811.97;;;18.35;22.67
13478;BME280;12598;62.382;17.344;2023-04-10T01:49:38;102808.34;;;18.36;22.70
13478;BME280;12598;62.382;17.344;2023-04-10T01:50:46;102811.03;;;18.36;22.49
13478;BME280;12598;62.382;17.344;2023-04-10T01:51:50;102814.66;;;18.35;22.57
13478;BME280;12598;62.382;17.344;2023-04-10T01:52:53;102810.25;;;18.34;23.15
13478;BME280;12598;62.382;17.344;2023-04-10T01:53:58;102807.59;;;18.34;22.61
13478;BME280;12598;62.382;17.344;2023-04-10T01:55:01;102802.22;;;18.34;22.51
13478;BME280;12598;62.382;17.344;2023-04-10T01:56:12;102808.56;;;18.33;22.77
13478;BME280;12598;62.382;17.344;2023-04-10T01:57:19;102804.72;;;18.37;22.95
13478;BME280;12598;62.382;17.344;2023-04-10T01:58:29;102810.06;;;18.37;22.47
13478;BME280;12598;62.382;17.344;2023-04-10T01:59:32;102804.03;;;18.33;22.71
13478;BME280;12598;62.382;17.344;2023-04-10T02:00:41;102807.59;;;18.34;22.42
13478;BME280;12598;62.382;17.344;2023-04-10T02:01:47;102799.63;;;18.32;22.57
13478;BME280;12598;62.382;17.344;2023-04-10T02:02:50;102807.59;;;18.34;22.67
13478;BME280;12598;62.382;17.344;2023-04-10T02:03:52;102797.06;;;18.31;22.97
13478;BME280;12598;62.382;17.344;2023-04-10T02:04:55;102807.78;;;18.31;22.64
13478;BME280;12598;62.382;17.344;2023-04-10T02:07:33;102798.59;;;18.35;22.87
13478;BME280;12598;62.382;17.344;2023-04-10T02:08:39;102800.50;;;18.33;22.43
13478;BME280;12598;62.382;17.344;2023-04-10T02:10:21;102802.78;;;18.39;22.46
13478;BME280;12598;62.382;17.344;2023-04-10T02:11:46;102801.63;;;18.43;22.69
13478;BME280;12598;62.382;17.344;2023-04-10T02:12:52;102805.47;;;18.39;22.41
13478;BME280;12598;62.382;17.344;2023-04-10T02:13:59;102805.75;;;18.34;22.41
13478;BME280;12598;62.382;17.344;2023-04-10T02:15:03;102804.16;;;18.32;22.54
13478;BME280;12598;62.382;17.344;2023-04-10T02:16:07;102800.72;;;18.30;22.71
13478;BME280;12598;62.382;17.344;2023-04-10T02:17:13;102800.88;;;18.27;22.61
13478;BME280;12598;62.382;17.344;2023-04-10T02:18:17;102796.41;;;18.27;22.96
13478;BME280;12598;62.382;17.344;2023-04-10T02:19:21;102796.56;;;18.24;22.78
13478;BME280;12598;62.382;17.344;2023-04-10T02:20:24;102799.16;;;18.26;22.99
13478;BME280;12598;62.382;17.344;2023-04-10T02:21:27;102792.06;;;18.25;22.96
13478;BME280;12598;62.382;17.344;2023-04-10T02:22:29;102793.00;;;18.24;22.97
13478;BME280;12598;62.382;17.344;2023-04-10T02:23:31;102791.31;;;18.23;23.08
13478;BME280;12598;62.382;17.344;2023-04-10T02:24:34;102793.97;;;18.23;22.84
13478;BME280;12598;62.382;17.344;2023-04-10T02:25:36;102795.81;;;18.22;23.06
13478;BME280;12598;62.382;17.344;2023-04-10T02:26:50;102781.94;;;18.16;22.89
13478;BME280;12598;62.382;17.344;2023-04-10T02:27:52;102795.63;;;18.25;22.80
13478;BME280;12598;62.382;17.344;2023-04-10T02:28:53;102794.75;;;18.25;23.01
13478;BME280;12598;62.382;17.344;2023-04-10T02:29:56;102789.59;;;18.22;22.67
13478;BME280;12598;62.382;17.344;2023-04-10T02:30:58;102789.59;;;18.22;23.02
13478;BME280;12598;62.382;17.344;2023-04-10T02:32:00;102789.69;;;18.20;22.72
13478;BME280;12598;62.382;17.344;2023-04-10T02:33:02;102795.91;;;18.21;22.58
13478;BME280;12598;62.382;17.344;2023-04-10T02:34:05;102795.91;;;18.21;22.86
13478;BME280;12598;62.382;17.344;2023-04-10T02:35:07;102796.84;;;18.20;22.54
13478;BME280;12598;62.382;17.344;2023-04-10T02:36:11;102793.53;;;18.16;22.85
13478;BME280;12598;62.382;17.344;2023-04-10T02:37:13;102782.34;;;18.10;22.86
13478;BME280;12598;62.382;17.344;2023-04-10T02:38:15;102776.31;;;18.06;22.99
13478;BME280;12598;62.382;17.344;2023-04-10T02:39:18;102800.50;;;18.19;22.93
13478;BME280;12598;62.382;17.344;2023-04-10T02:40:23;102797.81;;;18.19;22.86
13478;BME280;12598;62.382;17.344;2023-04-10T02:41:39;102805.66;;;18.22;22.46
13478;BME280;12598;62.382;17.344;2023-04-10T02:42:41;102802.22;;;18.20;22.58
13478;BME280;12598;62.382;17.344;2023-04-10T02:43:44;102792.66;;;18.16;22.63
13478;BME280;12598;62.382;17.344;2023-04-10T02:44:47;102802.31;;;18.18;22.66
13478;BME280;12598;62.382;17.344;2023-04-10T02:45:49;102794.28;;;18.18;22.60
13478;BME280;12598;62.382;17.344;2023-04-10T02:46:59;102798.69;;;18.19;22.59
13478;BME280;12598;62.382;17.344;2023-04-10T02:48:04;102802.31;;;18.18;22.38
13478;BME280;12598;62.382;17.344;2023-04-10T02:49:07;102803.28;;;18.17;22.86
13478;BME280;12598;62.382;17.344;2023-04-10T02:50:09;102809.59;;;18.16;22.70
13478;BME280;12598;62.382;17.344;2023-04-10T02:51:14;102806.81;;;18.18;22.68
13478;BME280;12598;62.382;17.344;2023-04-10T02:52:16;102796.69;;;18.09;22.58
13478;BME280;12598;62.382;17.344;2023-04-10T02:53:18;102804.34;;;18.15;22.72
13478;BME280;12598;62.382;17.344;2023-04-10T02:54:20;102809.69;;;18.15;22.64
13478;BME280;12598;62.382;17.344;2023-04-10T02:55:23;102813.31;;;18.14;23.02
13478;BME280;12598;62.382;17.344;2023-04-10T02:56:25;102810.66;;;18.14;22.67
13478;BME280;12598;62.382;17.344;2023-04-10T02:57:27;102805.28;;;18.14;22.66
13478;BME280;12598;62.382;17.344;2023-04-10T02:58:29;102805.50;;;18.11;22.64
13478;BME280;12598;62.382;17.344;2023-04-10T02:59:33;102811.59;;;18.13;22.84
13478;BME280;12598;62.382;17.344;2023-04-10T03:00:37;102808.09;;;18.12;22.86
13478;BME280;12598;62.382;17.344;2023-04-10T03:01:50;102809.69;;;18.15;23.30
13478;BME280;12598;62.382;17.344;2023-04-10T03:02:53;102795.84;;;18.08;22.43
13478;BME280;12598;62.382;17.344;2023-04-10T03:03:57;102807.13;;;18.13;22.45
13478;BME280;12598;62.382;17.344;2023-04-10T03:05:06;102802.63;;;18.14;22.72
13478;BME280;12598;62.382;17.344;2023-04-10T03:06:09;102797.56;;;18.09;22.54
13478;BME280;12598;62.382;17.344;2023-04-10T03:07:13;102801.00;;;18.11;22.91
13478;BME280;12598;62.382;17.344;2023-04-10T03:08:16;102803.69;;;18.11;22.64
13478;BME280;12598;62.382;17.344;2023-04-10T03:09:18;102804.66;;;18.10;22.56
13478;BME280;12598;62.382;17.344;2023-04-10T03:10:20;102802.06;;;18.09;22.94
13478;BME280;12598;62.382;17.344;2023-04-10T03:11:22;102802.06;;;18.09;22.60
13478;BME280;12598;62.382;17.344;2023-04-10T03:12:24;102791.19;;;17.98;22.81
13478;BME280;12598;62.382;17.344;2023-04-10T03:13:26;102807.41;;;18.09;22.84
13478;BME280;12598;62.382;17.344;2023-04-10T03:14:28;102802.06;;;18.09;22.87
13478;BME280;12598;62.382;17.344;2023-04-10T03:15:30;102802.34;;;18.04;22.64
13478;BME280;12598;62.382;17.344;2023-04-10T03:16:33;102797.66;;;18.08;22.73
13478;BME280;12598;62.382;17.344;2023-04-10T03:17:37;102788.31;;;18.01;22.66
13478;BME280;12598;62.382;17.344;2023-04-10T03:18:40;102792.38;;;18.06;22.62
13478;BME280;12598;62.382;17.344;2023-04-10T03:19:42;102758.91;;;17.87;22.65
13478;BME280;12598;62.382;17.344;2023-04-10T03:20:43;102800.53;;;18.05;22.72
13478;BME280;12598;62.382;17.344;2023-04-10T03:21:45;102797.75;;;18.06;22.74
13478;BME280;12598;62.382;17.344;2023-04-10T03:22:47;102799.56;;;18.06;22.59
13478;BME280;12598;62.382;17.344;2023-04-10T03:23:49;102792.50;;;18.05;23.04
13478;BME280;12598;62.382;17.344;2023-04-10T03:24:51;102800.53;;;18.05;22.86
13478;BME280;12598;62.382;17.344;2023-04-10T03:25:53;102788.94;;;18.04;22.80
13478;BME280;12598;62.382;17.344;2023-04-10T03:26:59;102791.53;;;18.06;22.58
13478;BME280;12598;62.382;17.344;2023-04-10T03:28:02;102789.81;;;18.05;22.69
13478;BME280;12598;62.382;17.344;2023-04-10T03:29:04;102783.59;;;18.04;22.94
13478;BME280;12598;62.382;17.344;2023-04-10T03:30:08;102787.16;;;18.05;22.73
13478;BME280;12598;62.382;17.344;2023-04-10T03:31:14;102787.03;;;18.06;22.70
13478;BME280;12598;62.382;17.344;2023-04-10T03:32:17;102783.50;;;18.06;22.64
13478;BME280;12598;62.382;17.344;2023-04-10T03:33:19;102779.13;;;18.05;22.93
13478;BME280;12598;62.382;17.344;2023-04-10T03:34:21;102782.75;;;18.04;22.65
13478;BME280;12598;62.382;17.344;2023-04-10T03:35:23;102769.66;;;17.99;22.78
13478;BME280;12598;62.382;17.344;2023-04-10T03:36:25;102772.88;;;18.04;22.97
13478;BME280;12598;62.382;17.344;2023-04-10T03:37:28;102771.16;;;18.03;22.55
13478;BME280;12598;62.382;17.344;2023-04-10T03:38:29;102775.69;;;18.03;22.53
13478;BME280;12598;62.382;17.344;2023-04-10T03:39:31;102772.03;;;18.04;22.74
13478;BME280;12598;62.382;17.344;2023-04-10T03:40:34;102755.63;;;17.96;22.79
13478;BME280;12598;62.382;17.344;2023-04-10T03:41:37;102759.06;;;17.98;22.98
13478;BME280;12598;62.382;17.344;2023-04-10T03:42:39;102770.31;;;18.03;22.77
13478;BME280;12598;62.382;17.344;2023-04-10T03:43:41;102767.72;;;18.01;22.67
13478;BME280;12598;62.382;17.344;2023-04-10T03:44:43;102773.97;;;18.02;22.75
13478;BME280;12598;62.382;17.344;2023-04-10T03:45:45;102752.06;;;17.95;22.70
13478;BME280;12598;62.382;17.344;2023-04-10T03:46:48;102765.94;;;18.02;22.75
13478;BME280;12598;62.382;17.344;2023-04-10T03:47:51;102773.09;;;18.01;22.99
13478;BME280;12598;62.382;17.344;2023-04-10T03:48:54;102746.72;;;17.95;22.57
13478;BME280;12598;62.382;17.344;2023-04-10T03:49:56;102759.81;;;18.00;23.05
13478;BME280;12598;62.382;17.344;2023-04-10T03:51:01;102760.56;;;18.02;22.62
13478;BME280;12598;62.382;17.344;2023-04-10T03:52:03;102761.53;;;18.01;22.99
13478;BME280;12598;62.382;17.344;2023-04-10T03:53:05;102760.78;;;17.99;22.86
13478;BME280;12598;62.382;17.344;2023-04-10T03:54:07;102765.16;;;18.00;22.89
13478;BME280;12598;62.382;17.344;2023-04-10T03:55:09;102746.53;;;17.98;22.73
13478;BME280;12598;62.382;17.344;2023-04-10T03:56:11;102758.09;;;17.99;22.72
13478;BME280;12598;62.382;17.344;2023-04-10T03:57:12;102754.47;;;18.00;23.04
13478;BME280;12598;62.382;17.344;2023-04-10T03:58:14;102758.09;;;17.99;22.98
13478;BME280;12598;62.382;17.344;2023-04-10T03:59:16;102763.44;;;17.99;22.93
13478;BME280;12598;62.382;17.344;2023-04-10T04:00:19;102746.06;;;17.92;22.77
13478;BME280;12598;62.382;17.344;2023-04-10T04:01:21;102760.88;;;17.97;22.93
13478;BME280;12598;62.382;17.344;2023-04-10T04:02:32;102761.53;;;18.01;22.91
13478;BME280;12598;62.382;17.344;2023-04-10T04:03:35;102739.84;;;17.91;22.72
13478;BME280;12598;62.382;17.344;2023-04-10T04:04:53;102751.66;;;18.01;22.77
13478;BME280;12598;62.382;17.344;2023-04-10T04:06:14;102747.00;;;18.05;22.57
13478;BME280;12598;62.382;17.344;2023-04-10T04:07:39;102755.78;;;18.07;22.95
13478;BME280;12598;62.382;17.344;2023-04-10T04:09:05;102751.19;;;18.09;22.81
13478;BME280;12598;62.382;17.344;2023-04-10T04:10:33;102749.38;;;18.09;22.48
13478;BME280;12598;62.382;17.344;2023-04-10T04:11:57;102737.81;;;18.09;22.65
13478;BME280;12598;62.382;17.344;2023-04-10T04:13:26;102751.09;;;18.10;22.36
13478;BME280;12598;62.382;17.344;2023-04-10T04:14:39;102739.72;;;18.07;22.81
13478;BME280;12598;62.382;17.344;2023-04-10T04:16:05;102745.28;;;18.04;22.57
13478;BME280;12598;62.382;17.344;2023-04-10T04:17:16;102741.63;;;18.05;22.45
13478;BME280;12598;62.382;17.344;2023-04-10T04:18:48;102745.94;;;18.07;22.91
13478;BME280;12598;62.382;17.344;2023-04-10T04:20:07;102739.91;;;18.04;22.96
13478;BME280;12598;62.382;17.344;2023-04-10T04:21:15;102746.31;;;18.01;22.99
13478;BME280;12598;62.382;17.344;2023-04-10T04:22:34;102749.00;;;18.01;22.72
13478;BME280;12598;62.382;17.344;2023-04-10T04:23:58;102741.72;;;18.03;23.05
13478;BME280;12598;62.382;17.344;2023-04-10T04:25:23;102740.13;;;18.01;22.82
13478;BME280;12598;62.382;17.344;2023-04-10T04:26:43;102726.38;;;17.93;22.62
13478;BME280;12598;62.382;17.344;2023-04-10T04:28:06;102738.59;;;17.97;23.08
13478;BME280;12598;62.382;17.344;2023-04-10T04:29:14;102751.78;;;18.00;22.94
13478;BME280;12598;62.382;17.344;2023-04-10T04:30:36;102744.59;;;18.00;22.91
13478;BME280;12598;62.382;17.344;2023-04-10T04:32:06;102743.56;;;18.03;22.78
13478;BME280;12598;62.382;17.344;2023-04-10T04:33:15;102746.44;;;18.00;23.08
13478;BME280;12598;62.382;17.344;2023-04-10T04:34:30;102744.72;;;17.99;22.86
13478;BME280;12598;62.382;17.344;2023-04-10T04:36:01;102746.31;;;18.01;22.60
13478;BME280;12598;62.382;17.344;2023-04-10T04:37:29;102747.94;;;18.04;22.65
13478;BME280;12598;62.382;17.344;2023-04-10T04:38:54;102748.91;;;18.03;22.94
13478;BME280;12598;62.382;17.344;2023-04-10T04:40:03;102746.53;;;17.98;23.04
13478;BME280;12598;62.382;17.344;2023-04-10T04:41:10;102747.59;;;17.96;22.78
13478;BME280;12598;62.382;17.344;2023-04-10T04:42:32;102746.63;;;17.97;22.81
13478;BME280;12598;62.382;17.344;2023-04-10T04:43:47;102750.28;;;17.96;22.87
13478;BME280;12598;62.382;17.344;2023-04-10T04:45:16;102746.72;;;17.95;23.04
13478;BME280;12598;62.382;17.344;2023-04-10T04:46:38;102758.09;;;17.99;22.95
13478;BME280;12598;62.382;17.344;2023-04-10T04:48:04;102748.63;;;17.93;23.03
13478;BME280;12598;62.382;17.344;2023-04-10T04:49:22;102758.94;;;17.99;22.91
13478;BME280;12598;62.382;17.344;2023-04-10T04:50:42;102757.13;;;18.00;23.30
13478;BME280;12598;62.382;17.344;2023-04-10T04:52:10;102716.63;;;17.78;22.82
13478;BME280;12598;62.382;17.344;2023-04-10T04:53:34;102754.47;;;18.00;23.29
13478;BME280;12598;62.382;17.344;2023-04-10T04:55:03;102748.56;;;17.95;23.11
13478;BME280;12598;62.382;17.344;2023-04-10T04:56:29;102759.81;;;18.00;23.26
13478;BME280;12598;62.382;17.344;2023-04-10T04:57:33;102744.03;;;17.95;23.28
13478;BME280;12598;62.382;17.344;2023-04-10T04:58:38;102748.63;;;17.93;23.09
13478;BME280;12598;62.382;17.344;2023-04-10T04:59:49;102755.91;;;17.91;23.12
13478;BME280;12598;62.382;17.344;2023-04-10T05:01:11;102755.72;;;17.94;23.14
13478;BME280;12598;62.382;17.344;2023-04-10T05:02:51;102742.13;;;17.97;23.38
13478;BME280;12598;62.382;17.344;2023-04-10T05:04:28;102755.31;;;18.00;23.09
13478;BME280;12598;62.382;17.344;2023-04-10T05:06:00;102741.16;;;17.98;23.13
13478;BME280;12598;62.382;17.344;2023-04-10T05:07:40;102740.88;;;18.03;23.18
13478;BME280;12598;62.382;17.344;2023-04-10T05:09:03;102747.19;;;18.02;23.61
13478;BME280;12598;62.382;17.344;2023-04-10T05:10:19;102738.41;;;18.00;23.05
13478;BME280;12598;62.382;17.344;2023-04-10T05:11:43;102741.84;;;18.02;23.39
13478;BME280;12598;62.382;17.344;2023-04-10T05:13:01;102736.47;;;18.02;23.13
13478;BME280;12598;62.382;17.344;2023-04-10T05:14:20;102739.91;;;18.04;23.07
13478;BME280;12598;62.382;17.344;2023-04-10T05:15:34;102737.13;;;18.05;23.10
13478;BME280;12598;62.382;17.344;2023-04-10T05:16:59;102711.06;;;17.95;23.00
13478;BME280;12598;62.382;17.344;2023-04-10T05:18:29;102735.59;;;18.15;23.33
13478;BME280;12598;62.382;17.344;2023-04-10T05:19:39;102715.53;;;18.08;23.30
13478;BME280;12598;62.382;17.344;2023-04-10T05:21:10;102732.38;;;18.23;22.70
13478;BME280;12598;62.382;17.344;2023-04-10T05:22:35;102733.09;;;18.26;23.12
13478;BME280;12598;62.382;17.344;2023-04-10T05:23:48;102730.41;;;18.26;23.07
13478;BME280;12598;62.382;17.344;2023-04-10T05:25:16;102721.34;;;18.29;23.03
13478;BME280;12598;62.382;17.344;2023-04-10T05:26:38;102727.88;;;18.37;23.13
13478;BME280;12598;62.382;17.344;2023-04-10T05:28:06;102727.47;;;18.43;22.96
13478;BME280;12598;62.382;17.344;2023-04-10T05:29:40;102706.91;;;18.44;22.66
13478;BME280;12598;62.382;17.344;2023-04-10T05:30:49;102728.78;;;18.50;22.78
13478;BME280;12598;62.382;17.344;2023-04-10T05:32:13;102730.19;;;18.56;23.22
13478;BME280;12598;62.382;17.344;2023-04-10T05:33:27;102723.78;;;18.58;22.71
13478;BME280;12598;62.382;17.344;2023-04-10T05:34:45;102724.41;;;18.62;22.70
13478;BME280;12598;62.382;17.344;2023-04-10T05:36:06;102724.94;;;18.67;22.76
13478;BME280;12598;62.382;17.344;2023-04-10T05:37:29;102714.22;;;18.67;22.58
13478;BME280;12598;62.382;17.344;2023-04-10T05:38:40;102712.97;;;18.72;22.72
13478;BME280;12598;62.382;17.344;2023-04-10T05:39:50;102724.22;;;18.77;22.70
13478;BME280;12598;62.382;17.344;2023-04-10T05:40:58;102728.53;;;18.80;23.08
13478;BME280;12598;62.382;17.344;2023-04-10T05:42:11;102732.81;;;18.82;22.64
13478;BME280;12598;62.382;17.344;2023-04-10T05:43:23;102731.00;;;18.83;22.53
13478;BME280;12598;62.382;17.344;2023-04-10T05:44:43;102730.34;;;18.92;22.81
13478;BME280;12598;62.382;17.344;2023-04-10T05:46:04;102698.72;;;18.84;22.61
13478;BME280;12598;62.382;17.344;2023-04-10T05:47:41;102716.53;;;18.98;22.28
13478;BME280;12598;62.382;17.344;2023-04-10T05:49:03;102734.66;;;19.07;22.33
13478;BME280;12598;62.382;17.344;2023-04-10T05:50:24;102722.97;;;19.08;22.39
13478;BME280;12598;62.382;17.344;2023-04-10T05:51:46;102723.72;;;19.10;22.71
13478;BME280;12598;62.382;17.344;2023-04-10T05:53:13;102719.88;;;19.14;22.13
13478;BME280;12598;62.382;17.344;2023-04-10T05:54:33;102721.41;;;19.18;22.31
13478;BME280;12598;62.382;17.344;2023-04-10T05:56:01;102716.03;;;19.18;22.28
13478;BME280;12598;62.382;17.344;2023-04-10T05:57:17;102723.88;;;19.21;22.09
13478;BME280;12598;62.382;17.344;2023-04-10T05:58:19;102706.66;;;19.11;22.31
13478;BME280;12598;62.382;17.344;2023-04-10T05:59:39;102716.66;;;19.21;22.27
13478;BME280;12598;62.382;17.344;2023-04-10T06:01:13;102711.75;;;19.28;22.45
13478;BME280;12598;62.382;17.344;2023-04-10T06:02:26;102716.22;;;19.27;22.35
13478;BME280;12598;62.382;17.344;2023-04-10T06:03:28;102714.66;;;19.25;22.32
13478;BME280;12598;62.382;17.344;2023-04-10T06:04:34;102711.22;;;19.23;22.40
13478;BME280;12598;62.382;17.344;2023-04-10T06:05:37;102715.59;;;19.24;22.12
13478;BME280;12598;62.382;17.344;2023-04-10T06:06:41;102717.31;;;19.25;22.42